createdAt,value
2023-09-23T00:01:07.665Z,101168.94
2023-09-23T00:03:36.524Z,101172.60
2023-09-23T00:06:05.267Z,101184.93
2023-09-23T00:08:33.318Z,101174.66
2023-09-23T00:11:01.337Z,101173.41
2023-09-23T00:13:30.744Z,101177.05
2023-09-23T00:15:58.741Z,101177.05
2023-09-23T00:18:26.898Z,101177.05
2023-09-23T00:20:55.067Z,101179.92
2023-09-23T00:23:24.041Z,101186.50
2023-09-23T00:25:52.482Z,101190.95
2023-09-23T00:28:22.679Z,101194.12
2023-09-23T00:30:50.670Z,101193.07
2023-09-23T00:33:20.297Z,101205.40
2023-09-23T00:35:49.848Z,101203.57
2023-09-23T00:38:19.733Z,101212.20
2023-09-23T00:40:48.028Z,101208.54
2023-09-23T00:43:17.750Z,101203.30
2023-09-23T00:45:51.927Z,101205.10
2023-09-23T00:48:23.584Z,101216.55
2023-09-23T00:50:53.792Z,101221.48
2023-09-23T00:53:23.574Z,101218.34
2023-09-23T00:55:54.875Z,101213.02
2023-09-23T00:58:24.444Z,101210.34
2023-09-23T01:00:54.388Z,101212.66
2023-09-23T01:03:22.474Z,101223.05
2023-09-23T01:06:01.867Z,101228.81
2023-09-23T01:08:29.895Z,101230.91
2023-09-23T01:10:58.492Z,101231.69
2023-09-23T01:13:27.332Z,101223.87
2023-09-23T01:15:55.720Z,101223.55
2023-09-23T01:18:25.731Z,101227.44
2023-09-23T01:20:53.977Z,101219.03
2023-09-23T01:23:22.823Z,101221.42
2023-09-23T01:25:50.938Z,101220.02
2023-09-23T01:28:18.976Z,101221.32
2023-09-23T01:30:48.229Z,101223.65
2023-09-23T01:33:19.145Z,101223.65
2023-09-23T01:35:48.308Z,101227.99
2023-09-23T01:38:17.926Z,101240.29
2023-09-23T01:40:46.021Z,101245.75
2023-09-23T01:43:14.092Z,101246.73
2023-09-23T01:45:42.201Z,101256.15
2023-09-23T01:48:10.275Z,101253.80
2023-09-23T01:50:38.255Z,101255.04
2023-09-23T01:53:07.007Z,101258.73
2023-09-23T01:55:34.913Z,101257.42
2023-09-23T01:58:03.514Z,101271.52
2023-09-23T02:00:31.923Z,101270.44
2023-09-23T02:02:59.928Z,101269.66
2023-09-23T02:05:31.847Z,101274.59
2023-09-23T02:07:59.807Z,101279.56
2023-09-23T02:10:28.676Z,101286.49
2023-09-23T02:12:57.797Z,101285.41
2023-09-23T02:15:25.814Z,101274.63
2023-09-23T02:17:54.229Z,101280.64
2023-09-23T02:20:22.771Z,101281.55
2023-09-23T02:22:52.972Z,101277.86
2023-09-23T02:25:21.342Z,101289.70
2023-09-23T02:27:49.305Z,101282.38
2023-09-23T02:30:17.450Z,101289.70
2023-09-23T02:32:47.532Z,101290.16
2023-09-23T02:35:18.627Z,101297.97
2023-09-23T02:37:48.090Z,101289.08
2023-09-23T02:40:20.169Z,101290.65
2023-09-23T02:42:50.226Z,101294.24
2023-09-23T02:45:20.061Z,101295.81
2023-09-23T02:47:48.501Z,101286.62
2023-09-23T02:50:17.576Z,101294.44
2023-09-23T02:52:52.040Z,101300.66
2023-09-23T02:55:23.283Z,101305.43
2023-09-23T02:57:52.556Z,101312.46
2023-09-23T03:00:22.346Z,101312.46
2023-09-23T03:02:59.176Z,101320.57
2023-09-23T03:05:31.746Z,101319.00
2023-09-23T03:08:02.051Z,101320.08
2023-09-23T03:10:42.771Z,101322.66
2023-09-23T03:13:13.770Z,101330.28
2023-09-23T03:15:47.084Z,101337.60
2023-09-23T03:18:18.107Z,101343.66
2023-09-23T03:20:46.650Z,101339.20
2023-09-23T03:23:14.722Z,101341.79
2023-09-23T03:25:50.620Z,101345.95
2023-09-23T03:28:19.041Z,101345.13
2023-09-23T03:30:50.483Z,101348.20
2023-09-23T03:33:20.729Z,101354.45
2023-09-23T03:35:49.399Z,101352.58
2023-09-23T03:38:18.341Z,101349.70
2023-09-23T03:40:57.169Z,101358.63
2023-09-23T03:43:25.343Z,101362.78
2023-09-23T03:45:53.662Z,101361.51
2023-09-23T03:48:22.398Z,101369.48
2023-09-23T03:50:54.813Z,101370.30
2023-09-23T03:53:27.060Z,101366.51
2023-09-23T03:55:57.156Z,101372.07
2023-09-23T03:58:25.279Z,101375.24
2023-09-23T04:00:53.149Z,101381.78
2023-09-23T04:03:22.064Z,101385.15
2023-09-23T04:06:00.137Z,101390.88
2023-09-23T04:08:28.926Z,101387.24
2023-09-23T04:10:57.019Z,101388.81
2023-09-23T04:13:24.951Z,101393.45
2023-09-23T04:15:53.359Z,101396.23
2023-09-23T04:18:21.387Z,101398.49
2023-09-23T04:20:51.500Z,101398.16
2023-09-23T04:23:19.419Z,101413.63
2023-09-23T04:25:47.612Z,101412.52
2023-09-23T04:28:15.617Z,101413.83
2023-09-23T04:30:43.487Z,101412.75
2023-09-23T04:33:11.532Z,101412.75
2023-09-23T04:35:39.493Z,101418.80
2023-09-23T04:38:07.749Z,101418.27
2023-09-23T04:40:35.727Z,101421.16
2023-09-23T04:43:06.774Z,101426.42
2023-09-23T04:45:34.779Z,101419.26
2023-09-23T04:48:03.574Z,101429.46
2023-09-23T04:50:31.572Z,101428.19
2023-09-23T04:52:59.526Z,101427.89
2023-09-23T04:55:28.028Z,101433.80
2023-09-23T04:57:57.867Z,101440.05
2023-09-23T05:00:26.090Z,101435.61
2023-09-23T05:02:54.600Z,101437.37
2023-09-23T05:05:25.936Z,101435.28
2023-09-23T05:07:55.390Z,101441.82
2023-09-23T05:10:23.567Z,101450.42
2023-09-23T05:12:51.593Z,101447.25
2023-09-23T05:15:19.763Z,101450.62
2023-09-23T05:17:47.809Z,101452.71
2023-09-23T05:20:18.125Z,101457.16
2023-09-23T05:22:46.045Z,101466.84
2023-09-23T05:25:14.168Z,101475.80
2023-09-23T05:27:42.658Z,101476.58
2023-09-23T05:30:13.857Z,101484.88
2023-09-23T05:32:41.761Z,101484.07
2023-09-23T05:35:16.581Z,101482.80
2023-09-23T05:37:45.901Z,101487.57
2023-09-23T05:40:29.262Z,101487.86
2023-09-23T05:42:58.026Z,101482.59
2023-09-23T05:45:27.079Z,101482.14
2023-09-23T05:47:55.631Z,101483.71
2023-09-23T05:50:24.794Z,101480.83
2023-09-23T05:52:57.901Z,101487.86
2023-09-23T05:55:26.066Z,101486.29
2023-09-23T05:57:55.663Z,101487.08
2023-09-23T06:00:23.639Z,101492.80
2023-09-23T06:02:51.723Z,101498.55
2023-09-23T06:05:20.963Z,101507.48
2023-09-23T06:07:48.974Z,101504.93
2023-09-23T06:10:17.607Z,101507.29
2023-09-23T06:12:45.497Z,101509.67
2023-09-23T06:15:13.546Z,101516.54
2023-09-23T06:17:41.726Z,101518.60
2023-09-23T06:20:10.413Z,101522.59
2023-09-23T06:22:38.564Z,101530.21
2023-09-23T06:25:09.887Z,101530.02
2023-09-23T06:27:38.581Z,101534.00
2023-09-23T06:30:07.840Z,101539.27
2023-09-23T06:32:35.932Z,101545.31
2023-09-23T06:35:04.736Z,101546.72
2023-09-23T06:37:33.504Z,101550.68
2023-09-23T06:40:01.415Z,101554.18
2023-09-23T06:42:29.344Z,101556.53
2023-09-23T06:44:57.311Z,101551.23
2023-09-23T06:47:25.322Z,101553.59
2023-09-23T06:49:53.395Z,101559.18
2023-09-23T06:52:21.437Z,101559.48
2023-09-23T06:54:49.401Z,101570.95
2023-09-23T06:57:17.419Z,101574.02
2023-09-23T06:59:45.566Z,101582.95
2023-09-23T07:02:13.583Z,101589.30
2023-09-23T07:04:41.704Z,101591.52
2023-09-23T07:07:09.603Z,101598.84
2023-09-23T07:09:37.536Z,101603.03
2023-09-23T07:12:05.721Z,101603.62
2023-09-23T07:14:33.680Z,101598.06
2023-09-23T07:17:02.163Z,101606.59
2023-09-23T07:19:30.112Z,101609.77
2023-09-23T07:21:58.117Z,101612.65
2023-09-23T07:24:28.619Z,101619.52
2023-09-23T07:26:57.476Z,101614.05
2023-09-23T07:29:25.549Z,101622.85
2023-09-23T07:31:55.291Z,101622.39
2023-09-23T07:34:23.351Z,101629.23
2023-09-23T07:36:51.346Z,101634.00
2023-09-23T07:39:19.599Z,101642.37
2023-09-23T07:41:47.748Z,101648.71
2023-09-23T07:44:15.758Z,101650.94
2023-09-23T07:46:43.756Z,101659.67
2023-09-23T07:49:11.738Z,101658.06
2023-09-23T07:51:39.944Z,101661.53
2023-09-23T07:54:08.154Z,101667.78
2023-09-23T07:56:36.167Z,101681.97
2023-09-23T07:59:04.216Z,101683.28
2023-09-23T08:01:32.226Z,101686.45
2023-09-23T08:04:00.280Z,101697.17
2023-09-23T08:06:28.202Z,101700.64
2023-09-23T08:08:56.228Z,101699.66
2023-09-23T08:11:24.170Z,101704.11
2023-09-23T08:13:52.138Z,101708.09
2023-09-23T08:16:20.275Z,101707.61
2023-09-23T08:18:48.253Z,101708.03
2023-09-23T08:21:18.035Z,101704.80
2023-09-23T08:23:46.558Z,101710.02
2023-09-23T08:26:14.956Z,101715.32
2023-09-23T08:28:43.025Z,101711.76
2023-09-23T08:31:10.996Z,101725.76
2023-09-23T08:33:39.074Z,101727.75
2023-09-23T08:36:07.301Z,101739.49
2023-09-23T08:38:35.228Z,101730.43
2023-09-23T08:41:08.406Z,101732.91
2023-09-23T08:43:41.309Z,101738.12
2023-09-23T08:46:11.857Z,101731.94
2023-09-23T08:48:41.237Z,101731.45
2023-09-23T08:51:11.489Z,101731.31
2023-09-23T08:53:42.014Z,101729.02
2023-09-23T08:56:10.794Z,101723.99
2023-09-23T08:58:38.869Z,101729.65
2023-09-23T09:01:07.307Z,101719.05
2023-09-23T09:03:36.248Z,101731.28
2023-09-23T09:06:05.775Z,101730.40
2023-09-23T09:08:34.238Z,101738.90
2023-09-23T09:11:02.506Z,101729.52
2023-09-23T09:13:33.504Z,101739.66
2023-09-23T09:16:06.652Z,101743.61
2023-09-23T09:18:35.088Z,101732.55
2023-09-23T09:21:03.019Z,101736.19
2023-09-23T09:23:35.240Z,101738.05
2023-09-23T09:26:03.238Z,101740.24
2023-09-23T09:28:32.880Z,101743.19
2023-09-23T09:31:01.718Z,101743.48
2023-09-23T09:33:31.664Z,101744.49
2023-09-23T09:35:59.595Z,101745.27
2023-09-23T09:38:28.225Z,101744.98
2023-09-23T09:41:07.951Z,101755.74
2023-09-23T09:43:36.089Z,101746.78
2023-09-23T09:46:10.675Z,101754.14
2023-09-23T09:48:44.385Z,101752.34
2023-09-23T09:51:18.263Z,101753.45
2023-09-23T09:53:48.263Z,101760.29
2023-09-23T09:56:20.073Z,101753.95
2023-09-23T09:58:51.034Z,101752.63
2023-09-23T10:01:20.322Z,101752.14
2023-09-23T10:03:52.269Z,101756.88
2023-09-23T10:06:21.865Z,101752.77
2023-09-23T10:08:51.181Z,101759.44
2023-09-23T10:11:19.324Z,101753.16
2023-09-23T10:13:47.458Z,101747.66
2023-09-23T10:16:19.871Z,101752.44
2023-09-23T10:18:57.079Z,101746.16
2023-09-23T10:21:26.912Z,101752.02
2023-09-23T10:23:57.092Z,101749.46
2023-09-23T10:26:27.835Z,101755.02
2023-09-23T10:29:06.992Z,101751.69
2023-09-23T10:31:36.741Z,101749.66
2023-09-23T10:34:09.252Z,101750.22
2023-09-23T10:36:38.779Z,101752.90
2023-09-23T10:39:11.741Z,101749.49
2023-09-23T10:41:39.740Z,101747.41
2023-09-23T10:44:08.186Z,101749.79
2023-09-23T10:46:36.537Z,101735.92
2023-09-23T10:49:04.528Z,101739.45
2023-09-23T10:51:34.006Z,101742.07
2023-09-23T10:54:02.066Z,101738.48
2023-09-23T10:56:30.557Z,101732.03
2023-09-23T10:58:58.934Z,101733.51
2023-09-23T11:01:26.992Z,101730.43
2023-09-23T11:03:55.008Z,101735.76
2023-09-23T11:06:23.098Z,101737.40
2023-09-23T11:08:52.163Z,101726.87
2023-09-23T11:11:20.314Z,101737.95
2023-09-23T11:13:50.975Z,101731.70
2023-09-23T11:16:19.422Z,101733.84
2023-09-23T11:18:48.485Z,101730.66
2023-09-23T11:21:17.108Z,101735.14
2023-09-23T11:23:45.384Z,101723.30
2023-09-23T11:26:13.716Z,101734.87
2023-09-23T11:28:41.663Z,101733.27
2023-09-23T11:31:09.621Z,101733.77
2023-09-23T11:33:37.557Z,101737.46
2023-09-23T11:36:05.961Z,101736.09
2023-09-23T11:38:33.891Z,101731.91
2023-09-23T11:41:02.932Z,101728.50
2023-09-23T11:43:30.882Z,101726.12
2023-09-23T11:45:58.859Z,101733.44
2023-09-23T11:48:26.872Z,101737.63
2023-09-23T11:50:54.920Z,101731.02
2023-09-23T11:53:23.031Z,101735.50
2023-09-23T11:55:51.810Z,101729.16
2023-09-23T11:58:19.971Z,101729.16
2023-09-23T12:00:50.480Z,101743.35
2023-09-23T12:03:18.570Z,101736.48
2023-09-23T12:05:47.566Z,101733.54
2023-09-23T12:08:15.538Z,101735.08
2023-09-23T12:10:43.530Z,101733.51
2023-09-23T12:13:11.497Z,101731.91
2023-09-23T12:15:39.609Z,101734.03
2023-09-23T12:18:07.858Z,101729.29
2023-09-23T12:20:36.047Z,101737.49
2023-09-23T12:23:04.461Z,101733.63
2023-09-23T12:25:32.670Z,101742.34
2023-09-23T12:28:00.855Z,101734.23
2023-09-23T12:30:29.201Z,101739.75
2023-09-23T12:32:57.394Z,101743.25
2023-09-23T12:35:25.412Z,101737.13
2023-09-23T12:37:53.446Z,101745.31
2023-09-23T12:40:21.547Z,101741.59
2023-09-23T12:42:49.480Z,101748.16
2023-09-23T12:45:17.556Z,101741.62
2023-09-23T12:47:56.927Z,101744.85
2023-09-23T12:50:28.016Z,101746.48
2023-09-23T12:52:56.215Z,101748.65
2023-09-23T12:55:24.153Z,101745.51
2023-09-23T12:57:54.861Z,101735.24
2023-09-23T13:00:23.558Z,101741.84
2023-09-23T13:02:55.438Z,101747.30
2023-09-23T13:05:23.610Z,101754.14
2023-09-23T13:07:51.762Z,101748.91
2023-09-23T13:10:19.749Z,101755.22
2023-09-23T13:12:47.718Z,101744.98
2023-09-23T13:15:16.293Z,101742.92
2023-09-23T13:17:44.504Z,101746.68
2023-09-23T13:20:13.711Z,101748.52
2023-09-23T13:22:41.875Z,101751.42
2023-09-23T13:25:10.218Z,101752.47
2023-09-23T13:27:38.556Z,101765.13
2023-09-23T13:30:07.257Z,101752.21
2023-09-23T13:32:35.293Z,101761.66
2023-09-23T13:35:03.415Z,101763.79
2023-09-23T13:37:31.875Z,101770.09
2023-09-23T13:40:00.872Z,101773.50
2023-09-23T13:42:28.930Z,101775.27
2023-09-23T13:44:56.933Z,101782.33
2023-09-23T13:47:25.478Z,101773.07
2023-09-23T13:49:53.778Z,101777.81
2023-09-23T13:52:21.802Z,101778.27
2023-09-23T13:54:49.707Z,101792.98
2023-09-23T13:57:18.058Z,101787.88
2023-09-23T13:59:46.087Z,101791.22
2023-09-23T14:02:20.825Z,101799.30
2023-09-23T14:04:48.806Z,101798.94
2023-09-23T14:07:16.913Z,101803.29
2023-09-23T14:09:44.825Z,101803.52
2023-09-23T14:12:13.349Z,101807.15
2023-09-23T14:14:41.289Z,101805.51
2023-09-23T14:17:09.335Z,101813.39
2023-09-23T14:19:37.626Z,101806.00
2023-09-23T14:22:05.688Z,101807.67
2023-09-23T14:24:33.728Z,101813.72
2023-09-23T14:27:01.796Z,101816.40
2023-09-23T14:29:31.470Z,101816.17
2023-09-23T14:31:59.575Z,101811.98
2023-09-23T14:34:27.651Z,101814.63
2023-09-23T14:36:56.116Z,101819.15
2023-09-23T14:39:24.290Z,101824.22
2023-09-23T14:41:52.400Z,101827.65
2023-09-23T14:44:20.417Z,101821.93
2023-09-23T14:46:48.520Z,101837.46
2023-09-23T14:49:16.423Z,101836.94
2023-09-23T14:51:44.430Z,101825.42
2023-09-23T14:54:12.470Z,101831.80
2023-09-23T14:56:40.475Z,101830.49
2023-09-23T14:59:08.957Z,101838.67
2023-09-23T15:01:37.127Z,101832.88
2023-09-23T15:04:06.172Z,101838.41
2023-09-23T15:06:34.253Z,101846.06
2023-09-23T15:09:02.482Z,101848.97
2023-09-23T15:11:31.040Z,101845.83
2023-09-23T15:14:01.186Z,101847.11
2023-09-23T15:16:30.721Z,101856.59
2023-09-23T15:18:58.723Z,101864.99
2023-09-23T15:21:26.739Z,101868.39
2023-09-23T15:23:54.690Z,101865.94
2023-09-23T15:26:22.770Z,101869.38
2023-09-23T15:28:51.251Z,101865.62
2023-09-23T15:31:19.578Z,101869.27
2023-09-23T15:33:48.111Z,101871.56
2023-09-23T15:36:16.906Z,101870.45
2023-09-23T15:38:44.871Z,101875.95
2023-09-23T15:41:14.339Z,101870.91
2023-09-23T15:43:43.301Z,101870.03
2023-09-23T15:46:11.466Z,101872.09
2023-09-23T15:48:39.373Z,101881.24
2023-09-23T15:51:11.542Z,101879.38
2023-09-23T15:53:40.027Z,101879.91
2023-09-23T15:56:11.876Z,101884.09
2023-09-23T15:58:40.617Z,101889.29
2023-09-23T16:01:09.123Z,101882.91
2023-09-23T16:03:37.385Z,101888.93
2023-09-23T16:06:05.723Z,101895.21
2023-09-23T16:08:33.630Z,101893.34
2023-09-23T16:11:03.828Z,101894.36
2023-09-23T16:13:34.183Z,101898.22
2023-09-23T16:16:02.482Z,101897.95
2023-09-23T16:18:30.639Z,101893.96
2023-09-23T16:20:58.610Z,101893.67
2023-09-23T16:23:26.646Z,101900.83
2023-09-23T16:25:55.047Z,101900.60
2023-09-23T16:28:23.502Z,101900.11
2023-09-23T16:30:51.547Z,101906.26
2023-09-23T16:33:19.578Z,101907.14
2023-09-23T16:35:47.675Z,101909.59
2023-09-23T16:38:16.585Z,101911.52
2023-09-23T16:40:44.774Z,101916.66
2023-09-23T16:43:12.710Z,101925.13
2023-09-23T16:45:41.580Z,101927.09
2023-09-23T16:48:09.709Z,101921.92
2023-09-23T16:50:37.730Z,101923.33
2023-09-23T16:53:06.326Z,101927.88
2023-09-23T16:55:34.301Z,101930.75
2023-09-23T16:58:02.707Z,101934.25
2023-09-23T17:00:30.963Z,101932.06
2023-09-23T17:02:59.055Z,101934.12
2023-09-23T17:05:27.195Z,101937.45
2023-09-23T17:07:55.234Z,101937.36
2023-09-23T17:10:23.393Z,101951.45
2023-09-23T17:12:51.401Z,101948.73
2023-09-23T17:15:21.611Z,101957.20
2023-09-23T17:17:49.672Z,101968.36
2023-09-23T17:20:18.153Z,101968.23
2023-09-23T17:22:46.236Z,101969.53
2023-09-23T17:25:14.473Z,101970.48
2023-09-23T17:27:42.525Z,101979.64
2023-09-23T17:30:11.888Z,101982.22
2023-09-23T17:32:40.042Z,101980.55
2023-09-23T17:35:08.225Z,101989.41
2023-09-23T17:37:36.415Z,101994.02
2023-09-23T17:40:05.810Z,101998.70
2023-09-23T17:42:33.858Z,101997.04
2023-09-23T17:45:01.856Z,101992.66
2023-09-23T17:47:29.971Z,101993.83
2023-09-23T17:49:58.008Z,102008.77
2023-09-23T17:52:25.973Z,102009.76
2023-09-23T17:54:54.079Z,102017.34
2023-09-23T17:57:21.977Z,102021.20
2023-09-23T17:59:50.392Z,102020.13
2023-09-23T18:02:18.691Z,102032.65
2023-09-23T18:04:46.716Z,102035.23
2023-09-23T18:07:14.621Z,102039.80
2023-09-23T18:09:43.833Z,102054.42
2023-09-23T18:12:13.074Z,102055.93
2023-09-23T18:14:41.265Z,102062.86
2023-09-23T18:17:09.448Z,102070.58
2023-09-23T18:19:39.083Z,102073.03
2023-09-23T18:22:07.439Z,102076.89
2023-09-23T18:24:35.717Z,102081.04
2023-09-23T18:27:04.931Z,102087.32
2023-09-23T18:29:33.528Z,102091.18
2023-09-23T18:32:01.542Z,102100.34
2023-09-23T18:34:29.706Z,102099.06
2023-09-23T18:36:57.828Z,102095.66
2023-09-23T18:39:25.795Z,102100.92
2023-09-23T18:41:53.739Z,102111.13
2023-09-23T18:44:21.836Z,102108.41
2023-09-23T18:46:49.815Z,102115.28
2023-09-23T18:49:17.771Z,102118.98
2023-09-23T18:51:45.681Z,102121.07
2023-09-23T18:54:13.791Z,102128.75
2023-09-23T18:56:41.823Z,102127.64
2023-09-23T18:59:10.114Z,102136.11
2023-09-23T19:01:38.080Z,102138.70
2023-09-23T19:04:06.426Z,102141.24
2023-09-23T19:06:34.549Z,102137.38
2023-09-23T19:09:02.481Z,102147.33
2023-09-23T19:11:31.307Z,102142.71
2023-09-23T19:13:59.666Z,102150.07
2023-09-23T19:16:27.746Z,102145.40
2023-09-23T19:18:55.723Z,102149.42
2023-09-23T19:21:23.667Z,102159.16
2023-09-23T19:23:51.612Z,102157.10
2023-09-23T19:26:19.684Z,102162.86
2023-09-23T19:28:47.653Z,102174.40
2023-09-23T19:31:17.341Z,102170.05
2023-09-23T19:33:49.455Z,102179.66
2023-09-23T19:36:18.861Z,102175.68
2023-09-23T19:38:46.991Z,102184.02
2023-09-23T19:41:15.035Z,102179.08
2023-09-23T19:43:43.389Z,102188.10
2023-09-23T19:46:12.102Z,102195.82
2023-09-23T19:48:40.130Z,102200.63
2023-09-23T19:51:10.593Z,102205.59
2023-09-23T19:53:38.584Z,102201.31
2023-09-23T19:56:06.871Z,102207.56
2023-09-23T19:58:37.231Z,102205.17
2023-09-23T20:01:07.271Z,102201.97
2023-09-23T20:03:35.268Z,102215.11
2023-09-23T20:06:05.501Z,102215.11
2023-09-23T20:08:33.455Z,102227.24
2023-09-23T20:11:01.577Z,102220.80
2023-09-23T20:13:30.216Z,102222.21
2023-09-23T20:15:58.277Z,102222.73
2023-09-23T20:18:26.479Z,102223.02
2023-09-23T20:20:54.596Z,102228.20
2023-09-23T20:23:27.461Z,102222.47
2023-09-23T20:25:56.275Z,102233.03
2023-09-23T20:28:24.201Z,102232.09
2023-09-23T20:30:52.254Z,102237.84
2023-09-23T20:33:21.039Z,102242.16
2023-09-23T20:35:50.191Z,102242.98
2023-09-23T20:38:18.304Z,102256.55
2023-09-23T20:40:46.890Z,102259.91
2023-09-23T20:43:15.188Z,102259.95
2023-09-23T20:45:43.951Z,102261.88
2023-09-23T20:48:12.401Z,102270.51
2023-09-23T20:50:40.685Z,102266.02
2023-09-23T20:53:09.448Z,102266.23
2023-09-23T20:55:37.832Z,102264.78
2023-09-23T20:58:06.447Z,102270.70
2023-09-23T21:00:37.382Z,102261.91
2023-09-23T21:03:09.425Z,102255.37
2023-09-23T21:05:38.282Z,102257.79
2023-09-23T21:08:07.512Z,102266.26
2023-09-23T21:10:37.278Z,102270.12
2023-09-23T21:13:07.814Z,102278.75
2023-09-23T21:15:35.748Z,102274.63
2023-09-23T21:18:04.676Z,102272.21
2023-09-23T21:20:32.932Z,102273.81
2023-09-23T21:23:03.113Z,102278.95
2023-09-23T21:25:32.638Z,102283.09
2023-09-23T21:28:00.785Z,102286.89
2023-09-23T21:30:29.982Z,102297.16
2023-09-23T21:32:57.941Z,102299.71
2023-09-23T21:35:25.890Z,102300.98
2023-09-23T21:37:53.811Z,102304.52
2023-09-23T21:40:21.843Z,102302.75
2023-09-23T21:42:49.903Z,102290.45
2023-09-23T21:45:18.044Z,102290.75
2023-09-23T21:47:47.485Z,102293.95
2023-09-23T21:50:15.541Z,102302.26
2023-09-23T21:52:44.974Z,102297.65
2023-09-23T21:55:15.906Z,102309.16
2023-09-23T21:57:49.455Z,102313.80
2023-09-23T22:00:36.121Z,102307.88
2023-09-23T22:03:06.523Z,102308.99
2023-09-23T22:05:34.641Z,102298.73
2023-09-23T22:08:04.414Z,102304.19
2023-09-23T22:10:32.570Z,102304.81
2023-09-23T22:13:01.770Z,102308.34
2023-09-23T22:15:30.703Z,102320.80
2023-09-23T22:17:59.878Z,102313.80
2023-09-23T22:20:30.432Z,102313.28
2023-09-23T22:22:59.276Z,102308.18
2023-09-23T22:25:27.990Z,102304.32
2023-09-23T22:27:57.302Z,102306.09
2023-09-23T22:30:28.326Z,102309.62
2023-09-23T22:32:58.069Z,102307.52
2023-09-23T22:35:30.599Z,102314.72
2023-09-23T22:38:03.384Z,102311.05
2023-09-23T22:40:34.983Z,102315.24
2023-09-23T22:43:03.398Z,102311.55
2023-09-23T22:45:39.396Z,102310.27
2023-09-23T22:48:09.111Z,102313.15
2023-09-23T22:50:37.264Z,102309.62
2023-09-23T22:53:07.322Z,102315.53
2023-09-23T22:55:35.415Z,102314.42
2023-09-23T22:58:03.478Z,102308.67
2023-09-23T23:00:34.603Z,102308.51
2023-09-23T23:03:03.175Z,102313.93
2023-09-23T23:05:31.454Z,102312.36
2023-09-23T23:08:03.580Z,102314.72
2023-09-23T23:10:31.610Z,102318.91
2023-09-23T23:12:59.531Z,102316.35
2023-09-23T23:15:31.461Z,102321.62
2023-09-23T23:18:00.744Z,102325.28
2023-09-23T23:20:28.827Z,102317.27
2023-09-23T23:23:00.476Z,102323.32
2023-09-23T23:25:28.497Z,102316.26
2023-09-23T23:27:59.548Z,102314.81
2023-09-23T23:30:27.460Z,102316.74
2023-09-23T23:32:55.859Z,102310.80
2023-09-23T23:35:29.332Z,102312.69
2023-09-23T23:37:57.325Z,102311.71
2023-09-23T23:40:25.787Z,102309.45
2023-09-23T23:42:53.695Z,102315.05
2023-09-23T23:45:22.584Z,102305.76
2023-09-23T23:47:55.867Z,102305.92
2023-09-23T23:50:25.553Z,102300.46
2023-09-23T23:52:56.617Z,102299.80
2023-09-23T23:55:25.378Z,102300.72
2023-09-23T23:57:53.751Z,102297.52
